sensor_id;sensor_type;location;lat;lon;timestamp;P1;durP1;ratioP1;P2;durP2;ratioP2
63173;SDS011;49265;54.526;9.028;2024-03-02T00:01:29;44.38;;;18.40;;
63173;SDS011;49265;54.526;9.028;2024-03-02T00:03:55;41.75;;;19.40;;
63173;SDS011;49265;54.526;9.028;2024-03-02T00:06:20;42.50;;;18.35;;
63173;SDS011;49265;54.526;9.028;2024-03-02T00:08:46;45.13;;;19.67;;
63173;SDS011;49265;54.526;9.028;2024-03-02T00:11:12;43.08;;;19.88;;
63173;SDS011;49265;54.526;9.028;2024-03-02T00:13:39;40.85;;;18.80;;
63173;SDS011;49265;54.526;9.028;2024-03-02T00:16:04;40.40;;;18.70;;
63173;SDS011;49265;54.526;9.028;2024-03-02T00:18:31;42.33;;;19.15;;
63173;SDS011;49265;54.526;9.028;2024-03-02T00:20:57;40.45;;;18.25;;
63173;SDS011;49265;54.526;9.028;2024-03-02T00:23:24;38.83;;;19.33;;
63173;SDS011;49265;54.526;9.028;2024-03-02T00:25:50;38.17;;;18.15;;
63173;SDS011;49265;54.526;9.028;2024-03-02T00:28:25;42.20;;;19.02;;
63173;SDS011;49265;54.526;9.028;2024-03-02T00:33:16;38.13;;;17.80;;
63173;SDS011;49265;54.526;9.028;2024-03-02T00:35:43;40.25;;;19.30;;
63173;SDS011;49265;54.526;9.028;2024-03-02T00:38:09;39.15;;;18.58;;
63173;SDS011;49265;54.526;9.028;2024-03-02T00:40:34;40.45;;;17.70;;
63173;SDS011;49265;54.526;9.028;2024-03-02T00:42:59;44.72;;;20.00;;
63173;SDS011;49265;54.526;9.028;2024-03-02T00:45:26;40.42;;;17.08;;
63173;SDS011;49265;54.526;9.028;2024-03-02T00:47:51;38.25;;;17.45;;
63173;SDS011;49265;54.526;9.028;2024-03-02T00:50:17;39.22;;;18.88;;
63173;SDS011;49265;54.526;9.028;2024-03-02T00:52:43;39.28;;;20.52;;
63173;SDS011;49265;54.526;9.028;2024-03-02T00:55:08;43.80;;;19.13;;
63173;SDS011;49265;54.526;9.028;2024-03-02T00:57:33;37.88;;;17.70;;
63173;SDS011;49265;54.526;9.028;2024-03-02T00:59:59;46.05;;;18.58;;
63173;SDS011;49265;54.526;9.028;2024-03-02T01:02:25;37.10;;;17.65;;
63173;SDS011;49265;54.526;9.028;2024-03-02T01:04:50;41.30;;;18.25;;
63173;SDS011;49265;54.526;9.028;2024-03-02T01:07:15;41.58;;;18.20;;
63173;SDS011;49265;54.526;9.028;2024-03-02T01:09:41;46.03;;;19.40;;
63173;SDS011;49265;54.526;9.028;2024-03-02T01:12:06;42.47;;;18.40;;
63173;SDS011;49265;54.526;9.028;2024-03-02T01:14:32;40.65;;;19.23;;
63173;SDS011;49265;54.526;9.028;2024-03-02T01:16:57;42.38;;;18.70;;
63173;SDS011;49265;54.526;9.028;2024-03-02T01:19:23;39.33;;;18.00;;
63173;SDS011;49265;54.526;9.028;2024-03-02T01:21:48;39.33;;;17.83;;
63173;SDS011;49265;54.526;9.028;2024-03-02T01:24:15;41.63;;;17.63;;
63173;SDS011;49265;54.526;9.028;2024-03-02T01:26:41;41.72;;;18.80;;
63173;SDS011;49265;54.526;9.028;2024-03-02T01:29:07;39.13;;;18.30;;
63173;SDS011;49265;54.526;9.028;2024-03-02T01:31:32;41.03;;;18.30;;
63173;SDS011;49265;54.526;9.028;2024-03-02T01:33:57;40.33;;;19.15;;
63173;SDS011;49265;54.526;9.028;2024-03-02T01:36:23;42.60;;;17.95;;
63173;SDS011;49265;54.526;9.028;2024-03-02T01:38:49;42.40;;;18.27;;
63173;SDS011;49265;54.526;9.028;2024-03-02T01:41:14;40.65;;;18.73;;
63173;SDS011;49265;54.526;9.028;2024-03-02T01:43:39;35.47;;;17.50;;
63173;SDS011;49265;54.526;9.028;2024-03-02T01:46:05;45.20;;;20.00;;
63173;SDS011;49265;54.526;9.028;2024-03-02T01:48:33;45.22;;;20.38;;
63173;SDS011;49265;54.526;9.028;2024-03-02T01:50:59;44.75;;;20.05;;
63173;SDS011;49265;54.526;9.028;2024-03-02T01:53:24;45.70;;;20.00;;
63173;SDS011;49265;54.526;9.028;2024-03-02T01:55:50;41.00;;;19.08;;
63173;SDS011;49265;54.526;9.028;2024-03-02T01:58:15;41.30;;;19.15;;
63173;SDS011;49265;54.526;9.028;2024-03-02T02:00:40;48.28;;;21.33;;
63173;SDS011;49265;54.526;9.028;2024-03-02T02:03:06;44.13;;;19.52;;
63173;SDS011;49265;54.526;9.028;2024-03-02T02:05:32;41.88;;;18.55;;
63173;SDS011;49265;54.526;9.028;2024-03-02T02:07:57;47.70;;;19.80;;
63173;SDS011;49265;54.526;9.028;2024-03-02T02:10:23;45.13;;;19.90;;
63173;SDS011;49265;54.526;9.028;2024-03-02T02:12:49;49.35;;;21.80;;
63173;SDS011;49265;54.526;9.028;2024-03-02T02:15:30;45.45;;;18.77;;
63173;SDS011;49265;54.526;9.028;2024-03-02T02:17:56;43.58;;;20.77;;
63173;SDS011;49265;54.526;9.028;2024-03-02T02:20:22;44.38;;;19.80;;
63173;SDS011;49265;54.526;9.028;2024-03-02T02:25:22;42.90;;;19.23;;
63173;SDS011;49265;54.526;9.028;2024-03-02T02:27:47;40.20;;;18.60;;
63173;SDS011;49265;54.526;9.028;2024-03-02T02:30:13;41.35;;;18.90;;
63173;SDS011;49265;54.526;9.028;2024-03-02T02:32:38;40.60;;;18.67;;
63173;SDS011;49265;54.526;9.028;2024-03-02T02:35:03;43.30;;;18.85;;
63173;SDS011;49265;54.526;9.028;2024-03-02T02:37:29;42.70;;;19.70;;
63173;SDS011;49265;54.526;9.028;2024-03-02T02:39:55;41.33;;;18.23;;
63173;SDS011;49265;54.526;9.028;2024-03-02T02:42:20;44.75;;;18.13;;
63173;SDS011;49265;54.526;9.028;2024-03-02T02:44:46;42.13;;;19.17;;
63173;SDS011;49265;54.526;9.028;2024-03-02T02:47:11;39.55;;;19.33;;
63173;SDS011;49265;54.526;9.028;2024-03-02T02:49:36;52.92;;;20.13;;
63173;SDS011;49265;54.526;9.028;2024-03-02T02:52:02;43.05;;;18.92;;
63173;SDS011;49265;54.526;9.028;2024-03-02T02:54:28;41.83;;;19.73;;
63173;SDS011;49265;54.526;9.028;2024-03-02T02:56:59;41.10;;;19.52;;
63173;SDS011;49265;54.526;9.028;2024-03-02T02:59:24;41.13;;;18.85;;
63173;SDS011;49265;54.526;9.028;2024-03-02T03:01:51;45.05;;;19.73;;
63173;SDS011;49265;54.526;9.028;2024-03-02T03:04:16;43.88;;;18.73;;
63173;SDS011;49265;54.526;9.028;2024-03-02T03:06:42;43.72;;;19.33;;
63173;SDS011;49265;54.526;9.028;2024-03-02T03:09:07;39.92;;;18.33;;
63173;SDS011;49265;54.526;9.028;2024-03-02T03:11:32;40.28;;;18.70;;
63173;SDS011;49265;54.526;9.028;2024-03-02T03:13:58;46.13;;;19.92;;
63173;SDS011;49265;54.526;9.028;2024-03-02T03:16:25;40.88;;;18.90;;
63173;SDS011;49265;54.526;9.028;2024-03-02T03:18:50;41.25;;;18.65;;
63173;SDS011;49265;54.526;9.028;2024-03-02T03:21:16;41.30;;;18.90;;
63173;SDS011;49265;54.526;9.028;2024-03-02T03:23:41;40.85;;;18.40;;
63173;SDS011;49265;54.526;9.028;2024-03-02T03:26:07;37.90;;;17.83;;
63173;SDS011;49265;54.526;9.028;2024-03-02T03:28:32;41.80;;;19.23;;
63173;SDS011;49265;54.526;9.028;2024-03-02T03:30:57;41.30;;;18.73;;
63173;SDS011;49265;54.526;9.028;2024-03-02T03:33:23;41.15;;;18.58;;
63173;SDS011;49265;54.526;9.028;2024-03-02T03:35:48;41.50;;;19.77;;
63173;SDS011;49265;54.526;9.028;2024-03-02T03:38:14;42.30;;;18.55;;
63173;SDS011;49265;54.526;9.028;2024-03-02T03:40:39;44.58;;;20.65;;
63173;SDS011;49265;54.526;9.028;2024-03-02T03:43:04;43.10;;;18.73;;
63173;SDS011;49265;54.526;9.028;2024-03-02T03:45:30;45.53;;;19.10;;
63173;SDS011;49265;54.526;9.028;2024-03-02T03:47:55;45.15;;;21.27;;
63173;SDS011;49265;54.526;9.028;2024-03-02T03:50:21;41.55;;;18.13;;
63173;SDS011;49265;54.526;9.028;2024-03-02T03:52:46;41.17;;;20.90;;
63173;SDS011;49265;54.526;9.028;2024-03-02T03:55:14;42.50;;;18.65;;
63173;SDS011;49265;54.526;9.028;2024-03-02T03:57:43;46.72;;;19.58;;
63173;SDS011;49265;54.526;9.028;2024-03-02T04:00:08;42.05;;;19.23;;
63173;SDS011;49265;54.526;9.028;2024-03-02T04:02:38;46.70;;;19.02;;
63173;SDS011;49265;54.526;9.028;2024-03-02T04:05:03;41.90;;;19.40;;
63173;SDS011;49265;54.526;9.028;2024-03-02T04:07:34;40.22;;;18.75;;
63173;SDS011;49265;54.526;9.028;2024-03-02T04:10:04;41.42;;;19.30;;
63173;SDS011;49265;54.526;9.028;2024-03-02T04:12:29;42.42;;;19.17;;
63173;SDS011;49265;54.526;9.028;2024-03-02T04:14:55;37.17;;;17.63;;
63173;SDS011;49265;54.526;9.028;2024-03-02T04:17:20;44.40;;;19.70;;
63173;SDS011;49265;54.526;9.028;2024-03-02T04:19:45;43.38;;;18.48;;
63173;SDS011;49265;54.526;9.028;2024-03-02T04:22:11;44.63;;;19.98;;
63173;SDS011;49265;54.526;9.028;2024-03-02T04:24:36;44.25;;;19.27;;
63173;SDS011;49265;54.526;9.028;2024-03-02T04:27:01;43.55;;;19.10;;
63173;SDS011;49265;54.526;9.028;2024-03-02T04:29:27;44.97;;;19.30;;
63173;SDS011;49265;54.526;9.028;2024-03-02T04:31:53;41.45;;;19.35;;
63173;SDS011;49265;54.526;9.028;2024-03-02T04:34:18;42.67;;;19.50;;
63173;SDS011;49265;54.526;9.028;2024-03-02T04:36:43;45.80;;;20.42;;
63173;SDS011;49265;54.526;9.028;2024-03-02T04:39:09;45.30;;;20.55;;
63173;SDS011;49265;54.526;9.028;2024-03-02T04:41:34;43.90;;;19.63;;
63173;SDS011;49265;54.526;9.028;2024-03-02T04:44:00;46.47;;;19.98;;
63173;SDS011;49265;54.526;9.028;2024-03-02T04:46:25;44.78;;;19.73;;
63173;SDS011;49265;54.526;9.028;2024-03-02T04:48:51;44.05;;;19.38;;
63173;SDS011;49265;54.526;9.028;2024-03-02T04:51:20;40.75;;;20.05;;
63173;SDS011;49265;54.526;9.028;2024-03-02T04:53:46;42.17;;;18.60;;
63173;SDS011;49265;54.526;9.028;2024-03-02T04:56:11;44.88;;;19.48;;
63173;SDS011;49265;54.526;9.028;2024-03-02T04:58:55;45.00;;;19.63;;
63173;SDS011;49265;54.526;9.028;2024-03-02T05:01:20;45.38;;;20.42;;
63173;SDS011;49265;54.526;9.028;2024-03-02T05:03:46;45.72;;;20.70;;
63173;SDS011;49265;54.526;9.028;2024-03-02T05:06:11;46.22;;;20.42;;
63173;SDS011;49265;54.526;9.028;2024-03-02T05:08:37;46.47;;;20.13;;
63173;SDS011;49265;54.526;9.028;2024-03-02T05:11:02;49.35;;;19.50;;
63173;SDS011;49265;54.526;9.028;2024-03-02T05:13:47;44.95;;;19.15;;
63173;SDS011;49265;54.526;9.028;2024-03-02T05:16:13;45.15;;;20.08;;
63173;SDS011;49265;54.526;9.028;2024-03-02T05:18:38;47.47;;;19.50;;
63173;SDS011;49265;54.526;9.028;2024-03-02T05:21:03;41.70;;;19.33;;
63173;SDS011;49265;54.526;9.028;2024-03-02T05:23:29;48.05;;;19.88;;
63173;SDS011;49265;54.526;9.028;2024-03-02T05:25:54;46.00;;;20.40;;
63173;SDS011;49265;54.526;9.028;2024-03-02T05:28:20;50.40;;;21.40;;
63173;SDS011;49265;54.526;9.028;2024-03-02T05:30:45;51.10;;;21.20;;
63173;SDS011;49265;54.526;9.028;2024-03-02T05:33:11;49.55;;;21.48;;
63173;SDS011;49265;54.526;9.028;2024-03-02T05:35:36;45.38;;;19.65;;
63173;SDS011;49265;54.526;9.028;2024-03-02T05:38:02;52.20;;;21.67;;
63173;SDS011;49265;54.526;9.028;2024-03-02T05:40:27;46.88;;;20.92;;
63173;SDS011;49265;54.526;9.028;2024-03-02T05:42:52;50.35;;;21.92;;
63173;SDS011;49265;54.526;9.028;2024-03-02T05:45:18;52.13;;;22.05;;
63173;SDS011;49265;54.526;9.028;2024-03-02T05:47:43;50.67;;;22.67;;
63173;SDS011;49265;54.526;9.028;2024-03-02T05:50:08;55.20;;;22.77;;
63173;SDS011;49265;54.526;9.028;2024-03-02T05:52:34;51.17;;;21.33;;
63173;SDS011;49265;54.526;9.028;2024-03-02T05:54:59;50.40;;;21.58;;
63173;SDS011;49265;54.526;9.028;2024-03-02T05:57:25;49.53;;;21.52;;
63173;SDS011;49265;54.526;9.028;2024-03-02T06:00:08;43.75;;;19.63;;
63173;SDS011;49265;54.526;9.028;2024-03-02T06:02:40;49.25;;;21.52;;
63173;SDS011;49265;54.526;9.028;2024-03-02T06:05:06;46.90;;;20.98;;
63173;SDS011;49265;54.526;9.028;2024-03-02T06:07:32;48.53;;;20.45;;
63173;SDS011;49265;54.526;9.028;2024-03-02T06:09:57;51.47;;;23.23;;
63173;SDS011;49265;54.526;9.028;2024-03-02T06:12:23;52.78;;;21.70;;
63173;SDS011;49265;54.526;9.028;2024-03-02T06:14:49;53.13;;;22.10;;
63173;SDS011;49265;54.526;9.028;2024-03-02T06:17:14;48.58;;;21.02;;
63173;SDS011;49265;54.526;9.028;2024-03-02T06:19:39;47.50;;;20.75;;
63173;SDS011;49265;54.526;9.028;2024-03-02T06:22:05;47.88;;;21.25;;
63173;SDS011;49265;54.526;9.028;2024-03-02T06:24:31;52.40;;;21.35;;
63173;SDS011;49265;54.526;9.028;2024-03-02T06:26:56;48.13;;;21.13;;
63173;SDS011;49265;54.526;9.028;2024-03-02T06:29:21;46.60;;;20.52;;
63173;SDS011;49265;54.526;9.028;2024-03-02T06:31:47;48.55;;;21.48;;
63173;SDS011;49265;54.526;9.028;2024-03-02T06:34:12;51.75;;;21.15;;
63173;SDS011;49265;54.526;9.028;2024-03-02T06:36:38;46.75;;;19.77;;
63173;SDS011;49265;54.526;9.028;2024-03-02T06:39:04;50.50;;;22.27;;
63173;SDS011;49265;54.526;9.028;2024-03-02T06:41:30;46.70;;;20.20;;
63173;SDS011;49265;54.526;9.028;2024-03-02T06:43:56;48.72;;;20.95;;
63173;SDS011;49265;54.526;9.028;2024-03-02T06:46:25;50.20;;;23.17;;
63173;SDS011;49265;54.526;9.028;2024-03-02T06:48:50;49.28;;;20.00;;
63173;SDS011;49265;54.526;9.028;2024-03-02T06:51:15;48.67;;;19.60;;
63173;SDS011;49265;54.526;9.028;2024-03-02T06:53:41;49.05;;;20.77;;
63173;SDS011;49265;54.526;9.028;2024-03-02T06:56:06;44.20;;;19.77;;
63173;SDS011;49265;54.526;9.028;2024-03-02T06:58:32;45.33;;;20.10;;
63173;SDS011;49265;54.526;9.028;2024-03-02T07:00:58;45.63;;;19.92;;
63173;SDS011;49265;54.526;9.028;2024-03-02T07:03:23;47.70;;;20.08;;
63173;SDS011;49265;54.526;9.028;2024-03-02T07:05:48;50.75;;;21.98;;
63173;SDS011;49265;54.526;9.028;2024-03-02T07:08:14;47.90;;;20.80;;
63173;SDS011;49265;54.526;9.028;2024-03-02T07:10:39;52.67;;;20.48;;
63173;SDS011;49265;54.526;9.028;2024-03-02T07:13:04;49.17;;;21.20;;
63173;SDS011;49265;54.526;9.028;2024-03-02T07:15:30;48.30;;;20.23;;
63173;SDS011;49265;54.526;9.028;2024-03-02T07:18:10;45.75;;;20.48;;
63173;SDS011;49265;54.526;9.028;2024-03-02T07:20:35;45.72;;;20.30;;
63173;SDS011;49265;54.526;9.028;2024-03-02T07:23:00;51.88;;;21.70;;
63173;SDS011;49265;54.526;9.028;2024-03-02T07:25:26;50.42;;;21.92;;
63173;SDS011;49265;54.526;9.028;2024-03-02T07:27:51;41.95;;;20.10;;
63173;SDS011;49265;54.526;9.028;2024-03-02T07:30:17;47.70;;;21.67;;
63173;SDS011;49265;54.526;9.028;2024-03-02T07:32:43;48.30;;;21.02;;
63173;SDS011;49265;54.526;9.028;2024-03-02T07:35:14;41.95;;;19.25;;
63173;SDS011;49265;54.526;9.028;2024-03-02T07:37:40;42.33;;;19.52;;
63173;SDS011;49265;54.526;9.028;2024-03-02T07:40:06;40.45;;;18.83;;
63173;SDS011;49265;54.526;9.028;2024-03-02T07:42:34;40.40;;;18.75;;
63173;SDS011;49265;54.526;9.028;2024-03-02T07:44:59;41.55;;;19.48;;
63173;SDS011;49265;54.526;9.028;2024-03-02T07:47:25;40.30;;;19.67;;
63173;SDS011;49265;54.526;9.028;2024-03-02T07:49:50;43.50;;;19.15;;
63173;SDS011;49265;54.526;9.028;2024-03-02T07:52:15;40.90;;;18.20;;
63173;SDS011;49265;54.526;9.028;2024-03-02T07:54:41;41.28;;;18.48;;
63173;SDS011;49265;54.526;9.028;2024-03-02T07:57:06;43.20;;;20.02;;
63173;SDS011;49265;54.526;9.028;2024-03-02T07:59:31;43.95;;;19.35;;
63173;SDS011;49265;54.526;9.028;2024-03-02T08:01:57;40.83;;;19.60;;
63173;SDS011;49265;54.526;9.028;2024-03-02T08:04:23;38.75;;;17.90;;
63173;SDS011;49265;54.526;9.028;2024-03-02T08:06:48;38.97;;;17.75;;
63173;SDS011;49265;54.526;9.028;2024-03-02T08:09:14;41.38;;;18.38;;
63173;SDS011;49265;54.526;9.028;2024-03-02T08:11:39;40.25;;;19.08;;
63173;SDS011;49265;54.526;9.028;2024-03-02T08:14:04;41.92;;;18.90;;
63173;SDS011;49265;54.526;9.028;2024-03-02T08:16:30;37.60;;;18.02;;
63173;SDS011;49265;54.526;9.028;2024-03-02T08:18:56;36.10;;;17.67;;
63173;SDS011;49265;54.526;9.028;2024-03-02T08:21:24;37.30;;;18.75;;
63173;SDS011;49265;54.526;9.028;2024-03-02T08:23:50;39.80;;;18.08;;
63173;SDS011;49265;54.526;9.028;2024-03-02T08:26:15;37.17;;;17.90;;
63173;SDS011;49265;54.526;9.028;2024-03-02T08:28:41;37.70;;;18.00;;
63173;SDS011;49265;54.526;9.028;2024-03-02T08:31:06;38.28;;;19.40;;
63173;SDS011;49265;54.526;9.028;2024-03-02T08:33:32;38.45;;;19.08;;
63173;SDS011;49265;54.526;9.028;2024-03-02T08:35:58;36.70;;;17.88;;
63173;SDS011;49265;54.526;9.028;2024-03-02T08:38:23;33.85;;;17.73;;
63173;SDS011;49265;54.526;9.028;2024-03-02T08:40:49;35.58;;;17.85;;
63173;SDS011;49265;54.526;9.028;2024-03-02T08:43:14;38.65;;;17.73;;
63173;SDS011;49265;54.526;9.028;2024-03-02T08:45:40;33.33;;;16.85;;
63173;SDS011;49265;54.526;9.028;2024-03-02T08:48:09;35.22;;;17.27;;
63173;SDS011;49265;54.526;9.028;2024-03-02T08:50:35;36.65;;;18.17;;
63173;SDS011;49265;54.526;9.028;2024-03-02T08:53:00;34.80;;;17.92;;
63173;SDS011;49265;54.526;9.028;2024-03-02T08:55:26;36.47;;;18.38;;
63173;SDS011;49265;54.526;9.028;2024-03-02T08:57:51;35.25;;;16.48;;
63173;SDS011;49265;54.526;9.028;2024-03-02T09:00:17;34.50;;;16.98;;
63173;SDS011;49265;54.526;9.028;2024-03-02T09:02:45;31.60;;;16.30;;
63173;SDS011;49265;54.526;9.028;2024-03-02T09:05:11;32.35;;;15.32;;
63173;SDS011;49265;54.526;9.028;2024-03-02T09:07:37;31.15;;;15.73;;
63173;SDS011;49265;54.526;9.028;2024-03-02T09:10:06;29.58;;;15.45;;
63173;SDS011;49265;54.526;9.028;2024-03-02T09:12:32;28.35;;;15.00;;
63173;SDS011;49265;54.526;9.028;2024-03-02T09:14:58;30.15;;;15.07;;
63173;SDS011;49265;54.526;9.028;2024-03-02T09:17:23;32.25;;;16.15;;
63173;SDS011;49265;54.526;9.028;2024-03-02T09:19:49;28.42;;;14.88;;
63173;SDS011;49265;54.526;9.028;2024-03-02T09:22:18;34.97;;;15.77;;
63173;SDS011;49265;54.526;9.028;2024-03-02T09:24:43;32.45;;;14.95;;
63173;SDS011;49265;54.526;9.028;2024-03-02T09:27:09;28.13;;;14.05;;
63173;SDS011;49265;54.526;9.028;2024-03-02T09:29:34;27.45;;;14.95;;
63173;SDS011;49265;54.526;9.028;2024-03-02T09:31:59;30.98;;;15.13;;
63173;SDS011;49265;54.526;9.028;2024-03-02T09:34:25;30.23;;;14.82;;
63173;SDS011;49265;54.526;9.028;2024-03-02T09:36:50;24.33;;;13.73;;
63173;SDS011;49265;54.526;9.028;2024-03-02T09:39:16;26.50;;;14.00;;
63173;SDS011;49265;54.526;9.028;2024-03-02T09:41:43;29.45;;;14.85;;
63173;SDS011;49265;54.526;9.028;2024-03-02T09:44:08;32.25;;;15.90;;
63173;SDS011;49265;54.526;9.028;2024-03-02T09:46:33;27.48;;;14.50;;
63173;SDS011;49265;54.526;9.028;2024-03-02T09:49:00;28.38;;;14.57;;
63173;SDS011;49265;54.526;9.028;2024-03-02T09:51:26;29.83;;;15.15;;
63173;SDS011;49265;54.526;9.028;2024-03-02T09:53:51;26.90;;;13.82;;
63173;SDS011;49265;54.526;9.028;2024-03-02T09:56:16;26.45;;;14.23;;
63173;SDS011;49265;54.526;9.028;2024-03-02T09:58:43;25.52;;;13.88;;
63173;SDS011;49265;54.526;9.028;2024-03-02T10:01:09;26.27;;;14.15;;
63173;SDS011;49265;54.526;9.028;2024-03-02T10:03:36;30.10;;;14.93;;
63173;SDS011;49265;54.526;9.028;2024-03-02T10:08:45;25.08;;;12.90;;
63173;SDS011;49265;54.526;9.028;2024-03-02T10:11:11;22.98;;;12.82;;
63173;SDS011;49265;54.526;9.028;2024-03-02T10:13:48;26.58;;;12.90;;
63173;SDS011;49265;54.526;9.028;2024-03-02T10:16:14;27.05;;;12.32;;
63173;SDS011;49265;54.526;9.028;2024-03-02T10:18:39;24.17;;;12.07;;
63173;SDS011;49265;54.526;9.028;2024-03-02T10:21:13;24.35;;;12.90;;
63173;SDS011;49265;54.526;9.028;2024-03-02T10:23:38;22.73;;;12.35;;
63173;SDS011;49265;54.526;9.028;2024-03-02T10:26:08;23.75;;;13.32;;
63173;SDS011;49265;54.526;9.028;2024-03-02T10:28:45;21.50;;;12.13;;
63173;SDS011;49265;54.526;9.028;2024-03-02T10:31:11;23.75;;;13.07;;
63173;SDS011;49265;54.526;9.028;2024-03-02T10:33:39;20.30;;;11.70;;
63173;SDS011;49265;54.526;9.028;2024-03-02T10:36:05;24.25;;;12.18;;
63173;SDS011;49265;54.526;9.028;2024-03-02T10:38:30;21.55;;;11.98;;
63173;SDS011;49265;54.526;9.028;2024-03-02T10:40:59;19.70;;;11.95;;
63173;SDS011;49265;54.526;9.028;2024-03-02T10:43:24;21.02;;;11.23;;
63173;SDS011;49265;54.526;9.028;2024-03-02T10:45:50;21.58;;;11.43;;
63173;SDS011;49265;54.526;9.028;2024-03-02T10:48:16;23.00;;;11.40;;
63173;SDS011;49265;54.526;9.028;2024-03-02T10:50:41;23.08;;;11.30;;
63173;SDS011;49265;54.526;9.028;2024-03-02T10:53:07;21.70;;;11.20;;
63173;SDS011;49265;54.526;9.028;2024-03-02T10:55:32;19.00;;;10.55;;
63173;SDS011;49265;54.526;9.028;2024-03-02T10:57:58;20.92;;;11.63;;
63173;SDS011;49265;54.526;9.028;2024-03-02T11:00:25;19.58;;;11.93;;
63173;SDS011;49265;54.526;9.028;2024-03-02T11:02:56;18.02;;;9.95;;
63173;SDS011;49265;54.526;9.028;2024-03-02T11:05:29;16.83;;;10.00;;
63173;SDS011;49265;54.526;9.028;2024-03-02T11:08:06;15.50;;;9.50;;
63173;SDS011;49265;54.526;9.028;2024-03-02T11:10:35;18.65;;;9.50;;
63173;SDS011;49265;54.526;9.028;2024-03-02T11:13:02;15.90;;;8.85;;
63173;SDS011;49265;54.526;9.028;2024-03-02T11:15:30;19.65;;;10.27;;
63173;SDS011;49265;54.526;9.028;2024-03-02T11:17:55;15.85;;;9.15;;
63173;SDS011;49265;54.526;9.028;2024-03-02T11:20:21;15.70;;;9.07;;
63173;SDS011;49265;54.526;9.028;2024-03-02T11:22:46;17.77;;;9.02;;
63173;SDS011;49265;54.526;9.028;2024-03-02T11:25:22;14.13;;;8.55;;
63173;SDS011;49265;54.526;9.028;2024-03-02T11:33:01;13.63;;;8.70;;
63173;SDS011;49265;54.526;9.028;2024-03-02T11:35:31;14.98;;;8.45;;
63173;SDS011;49265;54.526;9.028;2024-03-02T11:37:56;15.35;;;8.80;;
63173;SDS011;49265;54.526;9.028;2024-03-02T11:40:27;13.68;;;8.23;;
63173;SDS011;49265;54.526;9.028;2024-03-02T11:42:52;14.75;;;9.38;;
63173;SDS011;49265;54.526;9.028;2024-03-02T11:45:22;14.23;;;7.72;;
63173;SDS011;49265;54.526;9.028;2024-03-02T11:47:51;14.57;;;7.85;;
63173;SDS011;49265;54.526;9.028;2024-03-02T11:50:40;13.45;;;7.15;;
63173;SDS011;49265;54.526;9.028;2024-03-02T11:53:05;12.88;;;7.90;;
63173;SDS011;49265;54.526;9.028;2024-03-02T11:55:36;13.52;;;7.35;;
63173;SDS011;49265;54.526;9.028;2024-03-02T11:58:03;13.90;;;7.40;;
63173;SDS011;49265;54.526;9.028;2024-03-02T12:00:29;12.82;;;7.90;;
63173;SDS011;49265;54.526;9.028;2024-03-02T12:05:26;12.73;;;7.60;;
63173;SDS011;49265;54.526;9.028;2024-03-02T12:07:56;17.65;;;8.00;;
63173;SDS011;49265;54.526;9.028;2024-03-02T12:10:21;12.18;;;7.63;;
63173;SDS011;49265;54.526;9.028;2024-03-02T12:12:47;13.35;;;7.63;;
63173;SDS011;49265;54.526;9.028;2024-03-02T12:15:13;19.60;;;7.70;;
63173;SDS011;49265;54.526;9.028;2024-03-02T12:17:38;13.63;;;7.03;;
63173;SDS011;49265;54.526;9.028;2024-03-02T12:20:04;12.52;;;7.53;;
63173;SDS011;49265;54.526;9.028;2024-03-02T12:22:30;14.15;;;7.22;;
63173;SDS011;49265;54.526;9.028;2024-03-02T12:24:55;14.23;;;6.95;;
63173;SDS011;49265;54.526;9.028;2024-03-02T12:27:21;13.80;;;7.28;;
63173;SDS011;49265;54.526;9.028;2024-03-02T12:29:47;13.13;;;6.47;;
63173;SDS011;49265;54.526;9.028;2024-03-02T12:32:13;13.02;;;6.72;;
63173;SDS011;49265;54.526;9.028;2024-03-02T12:34:39;15.32;;;8.40;;
63173;SDS011;49265;54.526;9.028;2024-03-02T12:37:05;12.13;;;7.35;;
63173;SDS011;49265;54.526;9.028;2024-03-02T12:39:30;13.52;;;7.47;;
63173;SDS011;49265;54.526;9.028;2024-03-02T12:41:57;13.93;;;7.72;;
63173;SDS011;49265;54.526;9.028;2024-03-02T12:44:23;14.35;;;8.15;;
63173;SDS011;49265;54.526;9.028;2024-03-02T12:46:48;12.07;;;7.78;;
63173;SDS011;49265;54.526;9.028;2024-03-02T12:49:14;12.88;;;7.30;;
63173;SDS011;49265;54.526;9.028;2024-03-02T12:51:43;14.07;;;8.40;;
63173;SDS011;49265;54.526;9.028;2024-03-02T12:54:09;12.23;;;7.82;;
63173;SDS011;49265;54.526;9.028;2024-03-02T12:56:35;13.23;;;7.57;;
63173;SDS011;49265;54.526;9.028;2024-03-02T12:59:00;12.15;;;7.72;;
63173;SDS011;49265;54.526;9.028;2024-03-02T13:01:26;15.07;;;7.57;;
63173;SDS011;49265;54.526;9.028;2024-03-02T13:03:52;12.43;;;7.40;;
63173;SDS011;49265;54.526;9.028;2024-03-02T13:06:18;12.07;;;6.70;;
63173;SDS011;49265;54.526;9.028;2024-03-02T13:08:44;12.48;;;6.65;;
63173;SDS011;49265;54.526;9.028;2024-03-02T13:11:09;13.40;;;7.82;;
63173;SDS011;49265;54.526;9.028;2024-03-02T13:13:35;10.57;;;7.25;;
63173;SDS011;49265;54.526;9.028;2024-03-02T13:16:00;13.10;;;6.68;;
63173;SDS011;49265;54.526;9.028;2024-03-02T13:18:26;10.98;;;6.35;;
63173;SDS011;49265;54.526;9.028;2024-03-02T13:20:51;10.73;;;6.40;;
63173;SDS011;49265;54.526;9.028;2024-03-02T13:23:17;8.82;;;5.32;;
63173;SDS011;49265;54.526;9.028;2024-03-02T13:25:42;9.40;;;5.80;;
63173;SDS011;49265;54.526;9.028;2024-03-02T13:28:08;11.55;;;6.57;;
63173;SDS011;49265;54.526;9.028;2024-03-02T13:30:34;11.10;;;6.65;;
63173;SDS011;49265;54.526;9.028;2024-03-02T13:32:59;11.50;;;7.05;;
63173;SDS011;49265;54.526;9.028;2024-03-02T13:35:25;11.25;;;6.80;;
63173;SDS011;49265;54.526;9.028;2024-03-02T13:37:50;11.75;;;7.13;;
63173;SDS011;49265;54.526;9.028;2024-03-02T13:40:15;10.00;;;6.47;;
63173;SDS011;49265;54.526;9.028;2024-03-02T13:42:45;11.18;;;6.55;;
63173;SDS011;49265;54.526;9.028;2024-03-02T13:45:11;12.95;;;6.43;;
63173;SDS011;49265;54.526;9.028;2024-03-02T13:47:37;12.00;;;6.80;;
63173;SDS011;49265;54.526;9.028;2024-03-02T13:50:02;14.02;;;7.88;;
63173;SDS011;49265;54.526;9.028;2024-03-02T13:52:27;12.70;;;6.95;;
63173;SDS011;49265;54.526;9.028;2024-03-02T13:54:53;13.73;;;7.90;;
63173;SDS011;49265;54.526;9.028;2024-03-02T13:57:18;13.00;;;7.97;;
63173;SDS011;49265;54.526;9.028;2024-03-02T13:59:45;13.93;;;7.95;;
63173;SDS011;49265;54.526;9.028;2024-03-02T14:02:10;13.45;;;7.38;;
63173;SDS011;49265;54.526;9.028;2024-03-02T14:04:36;13.13;;;7.85;;
63173;SDS011;49265;54.526;9.028;2024-03-02T14:07:02;13.10;;;7.93;;
63173;SDS011;49265;54.526;9.028;2024-03-02T14:09:28;15.05;;;7.55;;
63173;SDS011;49265;54.526;9.028;2024-03-02T14:11:53;10.88;;;7.13;;
63173;SDS011;49265;54.526;9.028;2024-03-02T14:14:19;11.50;;;7.13;;
63173;SDS011;49265;54.526;9.028;2024-03-02T14:16:45;12.98;;;7.38;;
63173;SDS011;49265;54.526;9.028;2024-03-02T14:19:11;10.07;;;6.30;;
63173;SDS011;49265;54.526;9.028;2024-03-02T14:21:37;10.27;;;6.45;;
63173;SDS011;49265;54.526;9.028;2024-03-02T14:24:02;11.68;;;6.80;;
63173;SDS011;49265;54.526;9.028;2024-03-02T14:26:28;12.05;;;7.03;;
63173;SDS011;49265;54.526;9.028;2024-03-02T14:28:53;12.68;;;7.18;;
63173;SDS011;49265;54.526;9.028;2024-03-02T14:31:19;11.57;;;7.03;;
63173;SDS011;49265;54.526;9.028;2024-03-02T14:33:45;12.73;;;6.07;;